createdAt,value
2019-01-11T00:01:52.376Z,0.30
2019-01-11T00:04:18.670Z,0.30
2019-01-11T00:06:45.156Z,0.30
2019-01-11T00:09:11.481Z,0.40
2019-01-11T00:11:37.859Z,0.50
2019-01-11T00:14:04.534Z,0.50
2019-01-11T00:16:30.608Z,0.40
2019-01-11T00:18:58.014Z,0.20
2019-01-11T00:21:24.267Z,0.30
2019-01-11T00:23:50.482Z,0.50
2019-01-11T00:26:16.634Z,0.20
2019-01-11T00:28:44.205Z,0.30
2019-01-11T00:31:10.523Z,0.10
2019-01-11T00:33:36.652Z,0.00
2019-01-11T00:36:03.251Z,0.00
2019-01-11T00:38:29.380Z,0.00
2019-01-11T00:40:55.521Z,0.00
2019-01-11T00:43:21.681Z,0.00
2019-01-11T00:45:47.789Z,0.00
2019-01-11T00:48:13.981Z,0.00
2019-01-11T00:50:40.147Z,0.00
2019-01-11T00:53:06.306Z,0.10
2019-01-11T00:55:32.441Z,0.30
2019-01-11T00:57:58.591Z,0.30
2019-01-11T01:00:24.872Z,0.40
2019-01-11T01:02:51.446Z,0.40
2019-01-11T01:05:18.319Z,0.50
2019-01-11T01:07:44.724Z,0.40
2019-01-11T01:10:11.373Z,0.20
2019-01-11T01:12:37.465Z,0.20
2019-01-11T01:15:07.797Z,0.20
2019-01-11T01:17:33.947Z,0.20
2019-01-11T01:20:00.247Z,0.00
2019-01-11T01:22:26.469Z,-0.10
2019-01-11T01:24:52.641Z,-0.10
2019-01-11T01:27:18.730Z,-0.10
2019-01-11T01:29:45.085Z,-0.20
2019-01-11T01:32:11.469Z,-0.20
2019-01-11T01:34:37.601Z,-0.10
2019-01-11T01:37:03.837Z,0.00
2019-01-11T01:39:30.165Z,0.00
2019-01-11T01:41:56.301Z,0.10
2019-01-11T01:44:22.495Z,0.10
2019-01-11T01:46:48.609Z,0.00
2019-01-11T01:49:14.957Z,0.00
2019-01-11T01:51:41.137Z,0.00
2019-01-11T01:54:07.419Z,-0.10
2019-01-11T01:56:33.591Z,0.10
2019-01-11T01:58:59.757Z,0.20
2019-01-11T02:01:25.905Z,0.30
2019-01-11T02:03:52.025Z,0.30
2019-01-11T02:06:18.130Z,0.50
2019-01-11T02:08:44.227Z,0.50
2019-01-11T02:11:10.419Z,0.30
2019-01-11T02:13:36.609Z,0.20
2019-01-11T02:16:03.110Z,0.00
2019-01-11T02:18:29.288Z,0.00
2019-01-11T02:20:55.529Z,0.10
2019-01-11T02:23:21.619Z,0.00
2019-01-11T02:25:47.750Z,0.00
2019-01-11T02:28:14.082Z,-0.10
2019-01-11T02:30:40.254Z,-0.10
2019-01-11T02:33:06.404Z,0.00
2019-01-11T02:35:33.175Z,0.10
2019-01-11T02:37:59.405Z,0.10
2019-01-11T02:40:25.583Z,0.10
2019-01-11T02:42:51.821Z,0.20
2019-01-11T02:45:18.702Z,0.20
2019-01-11T02:47:44.913Z,0.00
2019-01-11T02:50:12.400Z,-0.10
2019-01-11T02:52:39.066Z,-0.10
2019-01-11T02:55:06.670Z,-0.10
2019-01-11T02:57:32.808Z,0.10
2019-01-11T02:59:58.912Z,0.00
2019-01-11T03:02:25.243Z,0.00
2019-01-11T03:04:51.567Z,0.00
2019-01-11T03:07:17.792Z,-0.10
2019-01-11T03:09:43.890Z,0.00
2019-01-11T03:12:10.000Z,0.00
2019-01-11T03:14:36.372Z,-0.10
2019-01-11T03:17:03.115Z,-0.10
2019-01-11T03:19:29.384Z,-0.10
2019-01-11T03:21:55.633Z,-0.10
2019-01-11T03:24:21.722Z,-0.10
2019-01-11T03:26:47.866Z,-0.10
2019-01-11T03:29:13.975Z,-0.20
2019-01-11T03:31:40.317Z,-0.10
2019-01-11T03:34:06.499Z,-0.20
2019-01-11T03:36:32.769Z,-0.20
2019-01-11T03:38:58.913Z,-0.20
2019-01-11T03:41:25.736Z,-0.30
2019-01-11T03:43:51.962Z,-0.20
2019-01-11T03:46:18.151Z,-0.30
2019-01-11T03:48:44.261Z,-0.30
2019-01-11T03:51:10.344Z,-0.30
2019-01-11T03:53:36.430Z,-0.40
2019-01-11T03:56:02.792Z,-0.40
2019-01-11T03:58:28.976Z,-0.40
2019-01-11T04:00:55.718Z,-0.50
2019-01-11T04:03:21.858Z,-0.50
2019-01-11T04:05:47.919Z,-0.50
2019-01-11T04:08:14.014Z,-0.50
2019-01-11T04:10:40.242Z,-0.50
2019-01-11T04:13:06.470Z,-0.50
2019-01-11T04:15:32.742Z,-0.50
2019-01-11T04:18:13.272Z,-0.50
2019-01-11T04:20:39.419Z,-0.60
2019-01-11T04:23:05.732Z,-0.60
2019-01-11T04:25:32.272Z,-0.60
2019-01-11T04:27:58.554Z,-0.60
2019-01-11T04:30:24.708Z,-0.50
2019-01-11T04:32:50.869Z,-0.60
2019-01-11T04:35:17.496Z,-0.60
2019-01-11T04:37:43.715Z,-0.50
2019-01-11T04:40:12.161Z,-0.50
2019-01-11T04:42:38.392Z,-0.40
2019-01-11T04:45:06.583Z,-0.40
2019-01-11T04:47:32.715Z,-0.40
2019-01-11T04:49:58.908Z,-0.40
2019-01-11T04:52:25.014Z,-0.40
2019-01-11T04:54:51.103Z,-0.30
2019-01-11T04:57:17.203Z,-0.40
2019-01-11T04:59:43.329Z,-0.40
2019-01-11T05:02:09.613Z,-0.30
2019-01-11T05:04:35.811Z,-0.30
2019-01-11T05:07:01.908Z,-0.30
2019-01-11T05:09:28.036Z,-0.20
2019-01-11T05:11:54.483Z,-0.30
2019-01-11T05:14:20.622Z,-0.30
2019-01-11T05:16:46.820Z,-0.30
2019-01-11T05:19:12.938Z,-0.20
2019-01-11T05:21:39.144Z,-0.30
2019-01-11T05:24:05.375Z,-0.30
2019-01-11T05:26:31.538Z,-0.30
2019-01-11T05:28:57.718Z,-0.30
2019-01-11T05:31:23.853Z,-0.20
2019-01-11T05:33:49.998Z,-0.30
2019-01-11T05:36:16.184Z,-0.20
2019-01-11T05:38:42.269Z,-0.30
2019-01-11T05:41:08.515Z,-0.20
2019-01-11T05:43:34.606Z,-0.20
2019-01-11T05:46:00.814Z,-0.10
2019-01-11T05:48:27.020Z,0.00
2019-01-11T05:50:53.106Z,0.00
2019-01-11T05:53:19.331Z,0.20
2019-01-11T05:55:46.810Z,0.10
2019-01-11T05:58:23.932Z,0.10
2019-01-11T06:00:50.013Z,0.10
2019-01-11T06:03:16.121Z,0.00
2019-01-11T06:05:42.372Z,-0.20
2019-01-11T06:08:10.466Z,-0.20
2019-01-11T06:10:36.636Z,-0.10
2019-01-11T06:13:02.965Z,-0.10
2019-01-11T06:15:29.090Z,-0.30
2019-01-11T06:17:55.168Z,-0.20
2019-01-11T06:20:21.418Z,-0.40
2019-01-11T06:22:47.502Z,-0.30
2019-01-11T06:25:13.598Z,-0.40
2019-01-11T06:27:39.666Z,-0.40
2019-01-11T06:30:09.301Z,-0.40
2019-01-11T06:32:35.526Z,-0.40
2019-01-11T06:35:01.941Z,-0.50
2019-01-11T06:37:28.034Z,-0.60
2019-01-11T06:39:54.169Z,-0.50
2019-01-11T06:42:22.211Z,-0.50
2019-01-11T06:44:48.379Z,-0.40
2019-01-11T06:47:14.461Z,-0.30
2019-01-11T06:49:40.563Z,-0.30
2019-01-11T06:52:06.674Z,-0.20
2019-01-11T06:54:32.800Z,-0.20
2019-01-11T06:56:58.946Z,-0.30
2019-01-11T06:59:25.038Z,-0.30
2019-01-11T07:01:51.184Z,-0.50
2019-01-11T07:04:17.267Z,-0.50
2019-01-11T07:06:43.364Z,-0.50
2019-01-11T07:09:09.610Z,-0.60
2019-01-11T07:11:35.897Z,-0.60
2019-01-11T07:14:02.256Z,-0.60
2019-01-11T07:16:28.362Z,-0.70
2019-01-11T07:18:54.476Z,-0.70
2019-01-11T07:21:20.569Z,-0.70
2019-01-11T07:23:46.718Z,-0.80
2019-01-11T07:26:12.796Z,-0.80
2019-01-11T07:28:38.939Z,-0.70
2019-01-11T07:31:06.872Z,-0.80
2019-01-11T07:33:33.219Z,-0.80
2019-01-11T07:36:04.273Z,-0.90
2019-01-11T07:38:30.398Z,-0.90
2019-01-11T07:40:56.550Z,-1.10
2019-01-11T07:43:22.657Z,-1.10
2019-01-11T07:45:48.878Z,-1.20
2019-01-11T07:48:15.003Z,-1.10
2019-01-11T07:50:41.334Z,-1.00
2019-01-11T07:53:07.410Z,-1.20
2019-01-11T07:55:33.558Z,-1.10
2019-01-11T07:57:59.687Z,-1.00
2019-01-11T08:00:25.936Z,-1.10
2019-01-11T08:02:52.279Z,-1.10
2019-01-11T08:05:18.464Z,-1.10
2019-01-11T08:07:44.545Z,-1.20
2019-01-11T08:10:11.775Z,-1.00
2019-01-11T08:12:38.170Z,-1.00
2019-01-11T08:15:08.145Z,-0.90
2019-01-11T08:17:34.386Z,-1.00
2019-01-11T08:20:00.569Z,-0.90
2019-01-11T08:22:31.618Z,-0.90
2019-01-11T08:25:03.989Z,-1.00
2019-01-11T08:27:30.220Z,-1.00
2019-01-11T08:29:56.444Z,-1.00
2019-01-11T08:32:23.335Z,-1.00
2019-01-11T08:34:49.491Z,-1.10
2019-01-11T08:37:17.630Z,-1.10
2019-01-11T08:39:43.818Z,-1.10
2019-01-11T08:42:10.043Z,-1.00
2019-01-11T08:44:36.685Z,-1.00
2019-01-11T08:47:03.102Z,-1.00
2019-01-11T08:49:29.193Z,-1.00
2019-01-11T08:51:55.311Z,-1.00
2019-01-11T08:54:21.425Z,-1.00
2019-01-11T08:56:47.547Z,-1.00
2019-01-11T08:59:13.775Z,-0.90
2019-01-11T09:01:39.869Z,-0.90
2019-01-11T09:04:05.969Z,-0.90
2019-01-11T09:06:32.080Z,-0.90
2019-01-11T09:08:58.309Z,-1.00
2019-01-11T09:11:24.573Z,-1.00
2019-01-11T09:13:50.826Z,-1.10
2019-01-11T09:16:20.639Z,-1.10
2019-01-11T09:18:45.820Z,-1.20
2019-01-11T09:21:11.951Z,-1.20
2019-01-11T09:23:38.147Z,-1.30
2019-01-11T09:26:04.440Z,-1.10
2019-01-11T09:28:30.525Z,-1.10
2019-01-11T09:30:56.678Z,-1.00
2019-01-11T09:33:22.803Z,-0.90
2019-01-11T09:35:49.304Z,-0.90
2019-01-11T09:38:16.242Z,-0.90
2019-01-11T09:40:42.756Z,-0.80
2019-01-11T09:43:08.930Z,-0.80
2019-01-11T09:45:35.041Z,-0.90
2019-01-11T09:48:01.136Z,-0.90
2019-01-11T09:50:27.313Z,-1.00
2019-01-11T09:52:53.572Z,-0.90
2019-01-11T09:55:19.689Z,-0.90
2019-01-11T09:57:46.702Z,-0.90
2019-01-11T10:00:16.593Z,-1.10
2019-01-11T10:02:43.566Z,-1.00
2019-01-11T10:05:10.111Z,-0.80
2019-01-11T10:07:36.318Z,-0.90
2019-01-11T10:10:06.089Z,-0.90
2019-01-11T10:12:32.331Z,-0.90
2019-01-11T10:14:58.512Z,-0.90
2019-01-11T10:17:24.607Z,-0.90
2019-01-11T10:19:50.837Z,-0.90
2019-01-11T10:22:16.962Z,-0.80
2019-01-11T10:24:43.299Z,-0.80
2019-01-11T10:27:09.601Z,-0.80
2019-01-11T10:29:35.749Z,-0.90
2019-01-11T10:32:01.920Z,-0.80
2019-01-11T10:34:28.017Z,-0.70
2019-01-11T10:36:54.201Z,-0.70
2019-01-11T10:39:20.314Z,-0.80
2019-01-11T10:41:46.440Z,-0.70
2019-01-11T10:44:12.607Z,-0.70
2019-01-11T10:46:40.683Z,-0.70
2019-01-11T10:49:09.027Z,-0.80
2019-01-11T10:51:35.286Z,-0.70
2019-01-11T10:54:01.975Z,-0.70
2019-01-11T10:56:28.061Z,-0.70
2019-01-11T10:58:54.138Z,-0.60
2019-01-11T11:01:20.238Z,-0.60
2019-01-11T11:03:46.354Z,-0.70
2019-01-11T11:06:12.449Z,-0.50
2019-01-11T11:08:38.573Z,-0.50
2019-01-11T11:11:04.840Z,-0.60
2019-01-11T11:13:31.011Z,-0.60
2019-01-11T11:15:59.022Z,-0.70
2019-01-11T11:18:25.126Z,-0.60
2019-01-11T11:20:51.302Z,-0.70
2019-01-11T11:23:17.527Z,-0.70
2019-01-11T11:25:43.616Z,-0.70
2019-01-11T11:28:09.834Z,-0.60
2019-01-11T11:30:36.926Z,-0.60
2019-01-11T11:33:03.340Z,-0.60
2019-01-11T11:35:29.562Z,-0.60
2019-01-11T11:37:55.968Z,-0.60
2019-01-11T11:40:22.413Z,-0.50
2019-01-11T11:42:49.292Z,-0.40
2019-01-11T11:45:15.887Z,-0.50
2019-01-11T11:47:42.032Z,-0.50
2019-01-11T11:50:09.146Z,-0.50
2019-01-11T11:52:35.367Z,-0.50
2019-01-11T11:55:01.592Z,-0.40
2019-01-11T11:57:27.713Z,-0.30
2019-01-11T11:59:53.842Z,-0.30
2019-01-11T12:02:20.016Z,-0.20
2019-01-11T12:04:46.206Z,-0.50
2019-01-11T12:07:12.291Z,-0.50
2019-01-11T12:09:38.477Z,-0.60
2019-01-11T12:12:04.673Z,-0.70
2019-01-11T12:14:30.894Z,-0.60
2019-01-11T12:16:57.009Z,-0.60
2019-01-11T12:19:23.105Z,-0.50
2019-01-11T12:21:49.250Z,-0.40
2019-01-11T12:24:15.507Z,-0.30
2019-01-11T12:26:41.664Z,-0.30
2019-01-11T12:29:08.450Z,-0.40
2019-01-11T12:31:34.612Z,-0.50
2019-01-11T12:34:00.818Z,-0.50
2019-01-11T12:36:27.141Z,-0.50
2019-01-11T12:38:53.299Z,-0.60
2019-01-11T12:41:19.459Z,-0.60
2019-01-11T12:43:45.591Z,-0.50
2019-01-11T12:46:11.723Z,-0.40
2019-01-11T12:48:37.947Z,-0.40
2019-01-11T12:51:04.395Z,-0.40
2019-01-11T12:53:30.592Z,-0.30
2019-01-11T12:55:56.803Z,-0.20
2019-01-11T12:58:22.894Z,-0.30
2019-01-11T13:00:49.096Z,-0.30
2019-01-11T13:03:15.233Z,-0.40
2019-01-11T13:05:41.357Z,-0.50
2019-01-11T13:08:07.707Z,-0.50
2019-01-11T13:10:33.972Z,-0.40
2019-01-11T13:13:00.159Z,-0.60
2019-01-11T13:15:26.236Z,-0.50
2019-01-11T13:17:52.415Z,-0.50
2019-01-11T13:20:19.238Z,-0.40
2019-01-11T13:22:45.969Z,-0.40
2019-01-11T13:25:12.058Z,-0.40
2019-01-11T13:27:38.268Z,-0.30
2019-01-11T13:30:08.009Z,-0.20
2019-01-11T13:32:34.360Z,-0.30
2019-01-11T13:35:00.443Z,-0.40
2019-01-11T13:37:26.525Z,-0.50
2019-01-11T13:39:52.654Z,-0.60
2019-01-11T13:42:18.736Z,-0.50
2019-01-11T13:44:44.830Z,-0.50
2019-01-11T13:47:11.083Z,-0.50
2019-01-11T13:49:37.267Z,-0.50
2019-01-11T13:52:07.113Z,-0.60
2019-01-11T13:54:31.602Z,-0.60
2019-01-11T13:56:57.696Z,-0.50
2019-01-11T13:59:23.881Z,-0.60
2019-01-11T14:01:50.008Z,-0.60
2019-01-11T14:04:16.212Z,-0.50
2019-01-11T14:06:42.332Z,-0.50
2019-01-11T14:09:08.558Z,-0.60
2019-01-11T14:11:34.663Z,-0.50
2019-01-11T14:14:00.815Z,-0.40
2019-01-11T14:16:27.099Z,-0.40
2019-01-11T14:18:53.189Z,-0.50
2019-01-11T14:21:19.312Z,-0.50
2019-01-11T14:23:45.573Z,-0.60
2019-01-11T14:26:11.695Z,-0.50
2019-01-11T14:28:37.834Z,-0.50
2019-01-11T14:31:04.136Z,-0.50
2019-01-11T14:33:30.461Z,-0.50
2019-01-11T14:35:56.676Z,-0.60
2019-01-11T14:38:22.784Z,-0.40
2019-01-11T14:40:48.929Z,-0.40
2019-01-11T14:43:15.226Z,-0.40
2019-01-11T14:45:41.416Z,-0.40
2019-01-11T14:48:07.528Z,-0.50
2019-01-11T14:50:33.644Z,-0.40
2019-01-11T14:52:59.750Z,-0.40
2019-01-11T14:55:26.003Z,-0.30
2019-01-11T14:57:52.245Z,-0.30
2019-01-11T15:00:20.482Z,-0.30
2019-01-11T15:02:46.964Z,-0.30
2019-01-11T15:05:14.395Z,-0.40
2019-01-11T15:07:40.766Z,-0.40
2019-01-11T15:10:09.656Z,-0.40
2019-01-11T15:12:35.811Z,-0.40
2019-01-11T15:15:02.990Z,-0.40
2019-01-11T15:17:29.202Z,-0.30
2019-01-11T15:19:55.298Z,-0.30
2019-01-11T15:22:26.543Z,-0.30
2019-01-11T15:24:49.696Z,-0.40
2019-01-11T15:27:15.945Z,-0.40
2019-01-11T15:29:42.140Z,-0.30
2019-01-11T15:32:08.448Z,-0.20
2019-01-11T15:34:34.670Z,-0.30
2019-01-11T15:37:00.904Z,-0.30
2019-01-11T15:39:27.021Z,-0.40
2019-01-11T15:41:53.222Z,-0.40
2019-01-11T15:44:19.374Z,-0.30
2019-01-11T15:46:45.593Z,-0.30
2019-01-11T15:49:13.122Z,-0.30
2019-01-11T15:51:39.206Z,-0.30
2019-01-11T15:54:05.597Z,-0.30
2019-01-11T15:56:31.712Z,-0.30
2019-01-11T15:58:57.876Z,-0.30
2019-01-11T16:01:24.417Z,-0.30
2019-01-11T16:03:50.863Z,-0.30
2019-01-11T16:06:27.984Z,-0.30
2019-01-11T16:09:15.988Z,-0.30
2019-01-11T16:11:57.632Z,-0.30
2019-01-11T16:14:42.694Z,-0.20
2019-01-11T16:17:12.621Z,-0.20
2019-01-11T16:19:38.706Z,-0.30
2019-01-11T16:22:04.921Z,-0.10
2019-01-11T16:24:31.044Z,-0.10
2019-01-11T16:26:57.175Z,-0.20
2019-01-11T16:29:23.493Z,-0.30
2019-01-11T16:31:49.687Z,-0.20
2019-01-11T16:34:15.791Z,-0.20
2019-01-11T16:36:42.218Z,-0.20
2019-01-11T16:39:08.741Z,-0.30
2019-01-11T16:41:35.192Z,-0.30
2019-01-11T16:44:01.415Z,-0.30
2019-01-11T16:46:28.032Z,-0.20
2019-01-11T16:48:54.428Z,-0.20
2019-01-11T16:51:20.626Z,-0.10
2019-01-11T16:53:46.715Z,-0.20
2019-01-11T16:56:12.861Z,-0.30
2019-01-11T16:58:39.016Z,-0.30
2019-01-11T17:01:05.239Z,-0.30
2019-01-11T17:03:31.394Z,-0.30
2019-01-11T17:05:57.476Z,-0.20
2019-01-11T17:08:23.565Z,-0.20
2019-01-11T17:10:49.669Z,-0.20
2019-01-11T17:13:15.923Z,-0.20
2019-01-11T17:15:42.136Z,-0.20
2019-01-11T17:18:08.349Z,-0.20
2019-01-11T17:20:34.540Z,-0.20
2019-01-11T17:23:00.830Z,-0.20
2019-01-11T17:25:27.368Z,-0.10
2019-01-11T17:27:53.529Z,-0.10
2019-01-11T17:30:19.733Z,0.00
2019-01-11T17:32:46.107Z,-0.10
2019-01-11T17:35:12.418Z,-0.10
2019-01-11T17:37:38.682Z,-0.10
2019-01-11T17:40:07.055Z,0.00
2019-01-11T17:42:33.279Z,0.10
2019-01-11T17:44:59.389Z,0.00
2019-01-11T17:47:25.773Z,0.10
2019-01-11T17:49:51.946Z,0.00
2019-01-11T17:52:18.051Z,0.00
2019-01-11T17:54:44.177Z,-0.10
2019-01-11T17:57:10.477Z,-0.10
2019-01-11T17:59:36.653Z,0.00
2019-01-11T18:02:03.203Z,0.00
2019-01-11T18:04:29.413Z,0.00
2019-01-11T18:06:55.560Z,0.10
2019-01-11T18:09:23.642Z,0.00
2019-01-11T18:11:49.764Z,0.10
2019-01-11T18:14:15.857Z,0.10
2019-01-11T18:16:42.018Z,0.10
2019-01-11T18:19:08.168Z,0.10
2019-01-11T18:21:34.502Z,0.10
2019-01-11T18:24:00.831Z,0.10
2019-01-11T18:26:26.965Z,0.20
2019-01-11T18:28:53.280Z,0.10
2019-01-11T18:31:19.413Z,0.10
2019-01-11T18:33:45.701Z,0.20
2019-01-11T18:36:11.949Z,0.30
2019-01-11T18:38:38.189Z,0.20
2019-01-11T18:41:04.447Z,0.10
2019-01-11T18:43:30.649Z,0.00
2019-01-11T18:45:56.813Z,0.00
2019-01-11T18:48:23.138Z,-0.10
2019-01-11T18:50:49.286Z,-0.10
2019-01-11T18:53:15.493Z,-0.10
2019-01-11T18:55:41.634Z,-0.10
2019-01-11T18:58:07.874Z,-0.10
2019-01-11T19:00:33.971Z,-0.10
2019-01-11T19:03:00.118Z,-0.10
2019-01-11T19:05:26.313Z,0.00
2019-01-11T19:07:52.558Z,0.10
2019-01-11T19:10:19.873Z,0.20
2019-01-11T19:12:46.819Z,0.10
2019-01-11T19:15:15.547Z,0.10
2019-01-11T19:17:41.724Z,0.20
2019-01-11T19:20:13.758Z,0.30
2019-01-11T19:22:40.053Z,0.30
2019-01-11T19:25:08.246Z,0.40
2019-01-11T19:27:34.338Z,0.40
2019-01-11T19:30:00.511Z,0.40
2019-01-11T19:32:26.708Z,0.40
2019-01-11T19:34:52.942Z,0.50
2019-01-11T19:37:19.027Z,0.50
2019-01-11T19:39:45.106Z,0.50
2019-01-11T19:42:11.218Z,0.50
2019-01-11T19:44:37.418Z,0.50
2019-01-11T19:47:03.658Z,0.60
2019-01-11T19:49:29.826Z,0.60
2019-01-11T19:51:56.052Z,0.50
2019-01-11T19:54:22.204Z,0.40
2019-01-11T19:56:48.380Z,0.50
2019-01-11T19:59:14.574Z,0.50
2019-01-11T20:01:40.730Z,0.50
2019-01-11T20:04:07.086Z,0.60
2019-01-11T20:06:33.226Z,0.60
2019-01-11T20:08:59.531Z,0.60
2019-01-11T20:11:25.821Z,0.60
2019-01-11T20:13:52.060Z,0.60
2019-01-11T20:16:18.273Z,0.70
2019-01-11T20:18:44.610Z,0.80
2019-01-11T20:21:10.936Z,0.80
2019-01-11T20:23:37.201Z,0.90
2019-01-11T20:26:03.935Z,0.90
2019-01-11T20:28:30.158Z,0.80
2019-01-11T20:30:56.258Z,0.90
2019-01-11T20:33:22.513Z,0.90
2019-01-11T20:35:48.818Z,0.90
2019-01-11T20:38:15.210Z,0.90
2019-01-11T20:40:41.439Z,0.90
2019-01-11T20:43:07.688Z,0.90
2019-01-11T20:45:33.859Z,0.90
2019-01-11T20:48:00.086Z,0.80
2019-01-11T20:50:26.274Z,0.80
2019-01-11T20:52:52.964Z,0.80
2019-01-11T20:55:19.316Z,0.80
2019-01-11T20:57:45.611Z,0.80
2019-01-11T21:00:18.631Z,0.80
2019-01-11T21:02:44.966Z,0.70
2019-01-11T21:05:11.529Z,0.80
2019-01-11T21:07:37.745Z,0.80
2019-01-11T21:10:06.662Z,1.00
2019-01-11T21:12:32.986Z,1.00
2019-01-11T21:14:59.093Z,1.00
2019-01-11T21:17:25.271Z,0.90
2019-01-11T21:19:51.443Z,1.00
2019-01-11T21:22:17.550Z,0.90
2019-01-11T21:24:43.643Z,1.00
2019-01-11T21:27:09.962Z,1.00
2019-01-11T21:29:36.101Z,1.00
2019-01-11T21:32:02.489Z,1.10
2019-01-11T21:34:28.569Z,1.10
2019-01-11T21:36:54.714Z,1.20
2019-01-11T21:39:20.899Z,1.20
2019-01-11T21:41:47.199Z,1.20
2019-01-11T21:44:13.383Z,1.20
2019-01-11T21:46:39.491Z,1.20
2019-01-11T21:49:05.719Z,1.20
2019-01-11T21:51:31.812Z,1.20
2019-01-11T21:53:57.907Z,1.30
2019-01-11T21:56:24.030Z,1.20
2019-01-11T21:58:50.228Z,1.20
2019-01-11T22:01:16.439Z,1.30
2019-01-11T22:03:42.595Z,1.30
2019-01-11T22:06:08.767Z,1.30
2019-01-11T22:08:34.909Z,1.30
2019-01-11T22:11:01.055Z,1.20
2019-01-11T22:13:27.287Z,1.30
2019-01-11T22:15:53.518Z,1.40
2019-01-11T22:18:20.250Z,1.40
2019-01-11T22:20:46.454Z,1.30
2019-01-11T22:23:12.637Z,1.30
2019-01-11T22:25:38.773Z,1.30
2019-01-11T22:28:05.094Z,1.30
2019-01-11T22:30:31.500Z,1.30
2019-01-11T22:32:57.620Z,1.40
2019-01-11T22:35:23.898Z,1.40
2019-01-11T22:37:49.979Z,1.40
2019-01-11T22:40:19.047Z,1.30
2019-01-11T22:42:46.536Z,1.30
2019-01-11T22:45:14.001Z,1.30
2019-01-11T22:47:40.515Z,1.30
2019-01-11T22:50:09.492Z,1.30
2019-01-11T22:52:35.740Z,1.20
2019-01-11T22:55:02.117Z,1.30
2019-01-11T22:57:28.200Z,1.30
2019-01-11T22:59:54.319Z,1.20
2019-01-11T23:02:24.163Z,1.20
2019-01-11T23:04:50.377Z,1.30
2019-01-11T23:07:20.245Z,1.30
2019-01-11T23:09:46.579Z,1.20
2019-01-11T23:12:31.780Z,1.20
2019-01-11T23:14:58.007Z,1.20
2019-01-11T23:17:33.799Z,1.20
2019-01-11T23:20:00.006Z,1.30
2019-01-11T23:22:26.238Z,1.20
2019-01-11T23:24:52.546Z,1.30
2019-01-11T23:27:18.705Z,1.30
2019-01-11T23:29:44.794Z,1.30
2019-01-11T23:32:10.971Z,1.30
2019-01-11T23:34:37.187Z,1.30
2019-01-11T23:37:03.359Z,1.40
2019-01-11T23:39:29.462Z,1.40
2019-01-11T23:41:55.597Z,1.40
2019-01-11T23:44:21.694Z,1.40
2019-01-11T23:46:47.757Z,1.40
2019-01-11T23:49:14.012Z,1.40
2019-01-11T23:51:40.182Z,1.30
2019-01-11T23:54:06.506Z,1.30
2019-01-11T23:56:32.604Z,1.40
2019-01-11T23:58:58.711Z,1.40
